sensor_id;sensor_type;location;lat;lon;timestamp;temperature;humidity
42841;DHT22;28491;46.898;7.660;2023-04-03T00:00:08;5.30;99.50
42841;DHT22;28491;46.898;7.660;2023-04-03T00:02:33;5.40;99.60
42841;DHT22;28491;46.898;7.660;2023-04-03T00:04:59;5.40;99.60
42841;DHT22;28491;46.898;7.660;2023-04-03T00:07:24;5.40;99.60
42841;DHT22;28491;46.898;7.660;2023-04-03T00:09:50;5.30;99.50
42841;DHT22;28491;46.898;7.660;2023-04-03T00:12:15;5.30;99.50
42841;DHT22;28491;46.898;7.660;2023-04-03T00:14:41;5.30;99.50
42841;DHT22;28491;46.898;7.660;2023-04-03T00:17:06;5.30;99.40
42841;DHT22;28491;46.898;7.660;2023-04-03T00:19:32;5.30;99.40
42841;DHT22;28491;46.898;7.660;2023-04-03T00:21:57;5.10;99.30
42841;DHT22;28491;46.898;7.660;2023-04-03T00:24:23;5.10;99.30
42841;DHT22;28491;46.898;7.660;2023-04-03T00:26:48;5.10;99.40
42841;DHT22;28491;46.898;7.660;2023-04-03T00:29:14;5.10;99.40
42841;DHT22;28491;46.898;7.660;2023-04-03T00:31:39;5.10;99.40
42841;DHT22;28491;46.898;7.660;2023-04-03T00:34:05;5.10;99.40
42841;DHT22;28491;46.898;7.660;2023-04-03T00:36:30;5.10;99.20
42841;DHT22;28491;46.898;7.660;2023-04-03T00:38:56;5.10;99.40
42841;DHT22;28491;46.898;7.660;2023-04-03T00:41:21;5.10;99.40
42841;DHT22;28491;46.898;7.660;2023-04-03T00:43:46;5.10;99.40
42841;DHT22;28491;46.898;7.660;2023-04-03T00:46:12;5.10;99.40
42841;DHT22;28491;46.898;7.660;2023-04-03T00:48:41;5.00;99.40
42841;DHT22;28491;46.898;7.660;2023-04-03T00:51:09;5.00;99.30
42841;DHT22;28491;46.898;7.660;2023-04-03T00:53:37;4.80;99.10
42841;DHT22;28491;46.898;7.660;2023-04-03T00:56:05;4.80;99.10
42841;DHT22;28491;46.898;7.660;2023-04-03T00:58:33;4.80;99.10
42841;DHT22;28491;46.898;7.660;2023-04-03T01:01:02;4.70;99.10
42841;DHT22;28491;46.898;7.660;2023-04-03T01:03:29;4.70;99.30
42841;DHT22;28491;46.898;7.660;2023-04-03T01:05:56;4.90;99.50
42841;DHT22;28491;46.898;7.660;2023-04-03T01:08:22;4.90;99.50
42841;DHT22;28491;46.898;7.660;2023-04-03T01:10:48;4.80;99.40
42841;DHT22;28491;46.898;7.660;2023-04-03T01:13:21;4.90;99.50
42841;DHT22;28491;46.898;7.660;2023-04-03T01:15:46;4.90;99.50
42841;DHT22;28491;46.898;7.660;2023-04-03T01:18:12;5.00;99.50
42841;DHT22;28491;46.898;7.660;2023-04-03T01:25:50;5.10;99.50
42841;DHT22;28491;46.898;7.660;2023-04-03T01:28:17;5.10;99.40
42841;DHT22;28491;46.898;7.660;2023-04-03T01:33:14;5.20;99.40
42841;DHT22;28491;46.898;7.660;2023-04-03T01:35:39;5.20;99.40
42841;DHT22;28491;46.898;7.660;2023-04-03T01:38:05;5.10;99.20
42841;DHT22;28491;46.898;7.660;2023-04-03T01:40:30;5.10;99.10
42841;DHT22;28491;46.898;7.660;2023-04-03T01:42:56;5.10;99.20
42841;DHT22;28491;46.898;7.660;2023-04-03T01:45:21;5.10;99.20
42841;DHT22;28491;46.898;7.660;2023-04-03T01:47:46;5.10;99.20
42841;DHT22;28491;46.898;7.660;2023-04-03T01:50:12;5.20;99.20
42841;DHT22;28491;46.898;7.660;2023-04-03T01:52:37;5.10;98.90
42841;DHT22;28491;46.898;7.660;2023-04-03T01:55:03;5.10;98.70
42841;DHT22;28491;46.898;7.660;2023-04-03T01:57:28;5.10;98.70
42841;DHT22;28491;46.898;7.660;2023-04-03T01:59:54;5.10;98.80
42841;DHT22;28491;46.898;7.660;2023-04-03T02:02:19;5.10;98.80
42841;DHT22;28491;46.898;7.660;2023-04-03T02:04:45;5.10;98.80
42841;DHT22;28491;46.898;7.660;2023-04-03T02:07:11;5.10;98.70
42841;DHT22;28491;46.898;7.660;2023-04-03T02:09:36;5.10;98.90
42841;DHT22;28491;46.898;7.660;2023-04-03T02:12:02;5.10;99.10
42841;DHT22;28491;46.898;7.660;2023-04-03T02:14:27;5.10;99.10
42841;DHT22;28491;46.898;7.660;2023-04-03T02:16:53;5.10;99.10
42841;DHT22;28491;46.898;7.660;2023-04-03T02:19:18;5.10;99.10
42841;DHT22;28491;46.898;7.660;2023-04-03T02:21:44;5.10;99.10
42841;DHT22;28491;46.898;7.660;2023-04-03T02:24:09;5.00;99.00
42841;DHT22;28491;46.898;7.660;2023-04-03T02:26:35;5.00;99.10
42841;DHT22;28491;46.898;7.660;2023-04-03T02:29:00;5.00;99.10
42841;DHT22;28491;46.898;7.660;2023-04-03T02:31:26;5.00;99.10
42841;DHT22;28491;46.898;7.660;2023-04-03T02:33:51;5.00;99.10
42841;DHT22;28491;46.898;7.660;2023-04-03T02:36:17;5.10;99.30
42841;DHT22;28491;46.898;7.660;2023-04-03T02:38:42;5.10;99.30
42841;DHT22;28491;46.898;7.660;2023-04-03T02:41:09;5.00;99.20
42841;DHT22;28491;46.898;7.660;2023-04-03T02:43:35;5.00;99.20
42841;DHT22;28491;46.898;7.660;2023-04-03T02:46:01;5.00;99.20
42841;DHT22;28491;46.898;7.660;2023-04-03T02:48:26;5.00;99.20
42841;DHT22;28491;46.898;7.660;2023-04-03T02:50:52;5.00;99.20
42841;DHT22;28491;46.898;7.660;2023-04-03T02:53:18;5.00;99.30
42841;DHT22;28491;46.898;7.660;2023-04-03T02:55:44;5.10;99.30
42841;DHT22;28491;46.898;7.660;2023-04-03T02:58:09;5.10;99.30
42841;DHT22;28491;46.898;7.660;2023-04-03T03:00:35;5.00;99.20
42841;DHT22;28491;46.898;7.660;2023-04-03T03:03:00;5.00;99.30
42841;DHT22;28491;46.898;7.660;2023-04-03T03:05:26;5.00;99.40
42841;DHT22;28491;46.898;7.660;2023-04-03T03:07:52;5.00;99.50
42841;DHT22;28491;46.898;7.660;2023-04-03T03:10:18;5.10;99.50
42841;DHT22;28491;46.898;7.660;2023-04-03T03:12:43;5.10;99.50
42841;DHT22;28491;46.898;7.660;2023-04-03T03:15:09;5.10;99.40
42841;DHT22;28491;46.898;7.660;2023-04-03T03:17:34;5.20;99.40
42841;DHT22;28491;46.898;7.660;2023-04-03T03:20:02;5.20;99.30
42841;DHT22;28491;46.898;7.660;2023-04-03T03:22:27;5.20;99.30
42841;DHT22;28491;46.898;7.660;2023-04-03T03:24:53;5.20;99.30
42841;DHT22;28491;46.898;7.660;2023-04-03T03:27:18;5.30;99.30
42841;DHT22;28491;46.898;7.660;2023-04-03T03:29:44;5.30;99.30
42841;DHT22;28491;46.898;7.660;2023-04-03T03:32:10;5.30;99.20
42841;DHT22;28491;46.898;7.660;2023-04-03T03:34:35;5.20;99.20
42841;DHT22;28491;46.898;7.660;2023-04-03T03:37:00;5.30;99.30
42841;DHT22;28491;46.898;7.660;2023-04-03T03:39:26;5.30;99.30
42841;DHT22;28491;46.898;7.660;2023-04-03T03:41:51;5.30;99.10
42841;DHT22;28491;46.898;7.660;2023-04-03T03:44:18;5.40;98.90
42841;DHT22;28491;46.898;7.660;2023-04-03T03:46:44;5.40;98.70
42841;DHT22;28491;46.898;7.660;2023-04-03T03:49:10;5.40;98.50
42841;DHT22;28491;46.898;7.660;2023-04-03T03:51:36;5.40;98.30
42841;DHT22;28491;46.898;7.660;2023-04-03T03:54:03;5.40;98.20
42841;DHT22;28491;46.898;7.660;2023-04-03T03:56:28;5.30;97.50
42841;DHT22;28491;46.898;7.660;2023-04-03T03:58:54;5.40;97.40
42841;DHT22;28491;46.898;7.660;2023-04-03T04:01:21;5.30;97.10
42841;DHT22;28491;46.898;7.660;2023-04-03T04:03:47;5.40;97.60
42841;DHT22;28491;46.898;7.660;2023-04-03T04:06:13;5.30;96.90
42841;DHT22;28491;46.898;7.660;2023-04-03T04:08:38;5.20;95.10
42841;DHT22;28491;46.898;7.660;2023-04-03T04:11:04;5.20;95.60
42841;DHT22;28491;46.898;7.660;2023-04-03T04:13:29;5.20;94.90
42841;DHT22;28491;46.898;7.660;2023-04-03T04:15:54;5.20;95.80
42841;DHT22;28491;46.898;7.660;2023-04-03T04:18:20;5.20;95.70
42841;DHT22;28491;46.898;7.660;2023-04-03T04:20:46;5.20;96.70
42841;DHT22;28491;46.898;7.660;2023-04-03T04:23:11;5.20;96.20
42841;DHT22;28491;46.898;7.660;2023-04-03T04:25:37;5.20;96.80
42841;DHT22;28491;46.898;7.660;2023-04-03T04:28:02;5.20;96.40
42841;DHT22;28491;46.898;7.660;2023-04-03T04:30:28;5.10;94.90
42841;DHT22;28491;46.898;7.660;2023-04-03T04:32:53;5.00;94.30
42841;DHT22;28491;46.898;7.660;2023-04-03T04:35:19;5.00;94.70
42841;DHT22;28491;46.898;7.660;2023-04-03T04:37:44;5.00;95.40
42841;DHT22;28491;46.898;7.660;2023-04-03T04:40:10;5.00;96.30
42841;DHT22;28491;46.898;7.660;2023-04-03T04:42:35;5.00;96.30
42841;DHT22;28491;46.898;7.660;2023-04-03T04:45:01;4.90;94.70
42841;DHT22;28491;46.898;7.660;2023-04-03T04:47:28;4.90;95.10
42841;DHT22;28491;46.898;7.660;2023-04-03T04:49:53;5.00;96.80
42841;DHT22;28491;46.898;7.660;2023-04-03T04:52:19;4.90;96.90
42841;DHT22;28491;46.898;7.660;2023-04-03T04:54:44;4.90;95.70
42841;DHT22;28491;46.898;7.660;2023-04-03T04:57:10;4.90;96.10
42841;DHT22;28491;46.898;7.660;2023-04-03T04:59:36;4.90;96.00
42841;DHT22;28491;46.898;7.660;2023-04-03T05:02:01;4.90;95.80
42841;DHT22;28491;46.898;7.660;2023-04-03T05:04:27;4.90;94.90
42841;DHT22;28491;46.898;7.660;2023-04-03T05:06:52;4.90;94.70
42841;DHT22;28491;46.898;7.660;2023-04-03T05:09:18;4.80;94.10
42841;DHT22;28491;46.898;7.660;2023-04-03T05:11:45;4.80;94.50
42841;DHT22;28491;46.898;7.660;2023-04-03T05:14:11;4.80;93.90
42841;DHT22;28491;46.898;7.660;2023-04-03T05:16:36;4.70;93.60
42841;DHT22;28491;46.898;7.660;2023-04-03T05:19:02;4.70;94.40
42841;DHT22;28491;46.898;7.660;2023-04-03T05:21:27;4.80;95.50
42841;DHT22;28491;46.898;7.660;2023-04-03T05:23:57;4.90;95.60
42841;DHT22;28491;46.898;7.660;2023-04-03T05:26:23;4.80;96.00
42841;DHT22;28491;46.898;7.660;2023-04-03T05:28:48;4.80;95.80
42841;DHT22;28491;46.898;7.660;2023-04-03T05:31:14;4.70;95.10
42841;DHT22;28491;46.898;7.660;2023-04-03T05:33:40;4.70;95.00
42841;DHT22;28491;46.898;7.660;2023-04-03T05:36:06;4.70;95.40
42841;DHT22;28491;46.898;7.660;2023-04-03T05:38:32;4.80;95.60
42841;DHT22;28491;46.898;7.660;2023-04-03T05:40:57;4.70;94.30
42841;DHT22;28491;46.898;7.660;2023-04-03T05:43:23;4.80;95.20
42841;DHT22;28491;46.898;7.660;2023-04-03T05:45:48;4.80;95.90
42841;DHT22;28491;46.898;7.660;2023-04-03T05:48:14;4.70;94.60
42841;DHT22;28491;46.898;7.660;2023-04-03T05:50:39;4.70;94.90
42841;DHT22;28491;46.898;7.660;2023-04-03T05:53:06;4.70;94.20
42841;DHT22;28491;46.898;7.660;2023-04-03T05:55:32;4.70;94.50
42841;DHT22;28491;46.898;7.660;2023-04-03T05:57:57;4.80;95.60
42841;DHT22;28491;46.898;7.660;2023-04-03T06:00:23;4.80;95.80
42841;DHT22;28491;46.898;7.660;2023-04-03T06:02:49;4.80;96.00
42841;DHT22;28491;46.898;7.660;2023-04-03T06:05:14;4.80;94.90
42841;DHT22;28491;46.898;7.660;2023-04-03T06:07:40;4.80;93.40
42841;DHT22;28491;46.898;7.660;2023-04-03T06:10:06;4.70;91.90
42841;DHT22;28491;46.898;7.660;2023-04-03T06:12:32;4.70;92.70
42841;DHT22;28491;46.898;7.660;2023-04-03T06:14:57;4.60;92.20
42841;DHT22;28491;46.898;7.660;2023-04-03T06:17:23;4.60;92.00
42841;DHT22;28491;46.898;7.660;2023-04-03T06:19:48;4.50;92.30
42841;DHT22;28491;46.898;7.660;2023-04-03T06:22:14;4.50;92.20
42841;DHT22;28491;46.898;7.660;2023-04-03T06:24:40;4.50;93.50
42841;DHT22;28491;46.898;7.660;2023-04-03T06:27:05;4.40;93.10
42841;DHT22;28491;46.898;7.660;2023-04-03T06:29:31;4.50;94.40
42841;DHT22;28491;46.898;7.660;2023-04-03T06:31:56;4.50;94.90
42841;DHT22;28491;46.898;7.660;2023-04-03T06:34:22;4.50;94.00
42841;DHT22;28491;46.898;7.660;2023-04-03T06:36:48;4.50;93.10
42841;DHT22;28491;46.898;7.660;2023-04-03T06:39:20;4.40;93.50
42841;DHT22;28491;46.898;7.660;2023-04-03T06:41:47;4.40;92.90
42841;DHT22;28491;46.898;7.660;2023-04-03T06:44:12;4.40;91.90
42841;DHT22;28491;46.898;7.660;2023-04-03T06:46:40;4.50;92.30
42841;DHT22;28491;46.898;7.660;2023-04-03T06:49:06;4.50;92.40
42841;DHT22;28491;46.898;7.660;2023-04-03T06:51:33;4.50;91.10
42841;DHT22;28491;46.898;7.660;2023-04-03T06:53:59;4.40;90.60
42841;DHT22;28491;46.898;7.660;2023-04-03T06:56:25;4.50;91.30
42841;DHT22;28491;46.898;7.660;2023-04-03T06:58:51;4.50;91.30
42841;DHT22;28491;46.898;7.660;2023-04-03T07:01:19;4.50;90.90
42841;DHT22;28491;46.898;7.660;2023-04-03T07:03:45;4.40;88.90
42841;DHT22;28491;46.898;7.660;2023-04-03T07:06:12;4.40;89.90
42841;DHT22;28491;46.898;7.660;2023-04-03T07:08:38;4.40;87.00
42841;DHT22;28491;46.898;7.660;2023-04-03T07:11:04;4.50;86.20
42841;DHT22;28491;46.898;7.660;2023-04-03T07:13:30;4.40;83.00
42841;DHT22;28491;46.898;7.660;2023-04-03T07:15:55;4.40;82.50
42841;DHT22;28491;46.898;7.660;2023-04-03T07:18:21;4.40;81.40
42841;DHT22;28491;46.898;7.660;2023-04-03T07:20:46;4.40;82.80
42841;DHT22;28491;46.898;7.660;2023-04-03T07:23:12;4.40;82.00
42841;DHT22;28491;46.898;7.660;2023-04-03T07:25:41;4.50;82.50
42841;DHT22;28491;46.898;7.660;2023-04-03T07:28:07;4.50;78.80
42841;DHT22;28491;46.898;7.660;2023-04-03T07:30:33;4.50;80.00
42841;DHT22;28491;46.898;7.660;2023-04-03T07:32:58;4.50;80.20
42841;DHT22;28491;46.898;7.660;2023-04-03T07:35:24;4.50;79.50
42841;DHT22;28491;46.898;7.660;2023-04-03T07:37:50;4.50;81.60
42841;DHT22;28491;46.898;7.660;2023-04-03T07:40:15;4.60;79.20
42841;DHT22;28491;46.898;7.660;2023-04-03T07:42:40;4.60;75.60
42841;DHT22;28491;46.898;7.660;2023-04-03T07:45:07;4.60;75.90
42841;DHT22;28491;46.898;7.660;2023-04-03T07:47:33;4.60;76.80
42841;DHT22;28491;46.898;7.660;2023-04-03T07:49:58;4.80;79.20
42841;DHT22;28491;46.898;7.660;2023-04-03T07:52:24;4.90;75.10
42841;DHT22;28491;46.898;7.660;2023-04-03T07:54:49;5.10;67.30
42841;DHT22;28491;46.898;7.660;2023-04-03T07:57:15;5.10;64.90
42841;DHT22;28491;46.898;7.660;2023-04-03T07:59:41;5.00;63.90
42841;DHT22;28491;46.898;7.660;2023-04-03T08:02:10;5.10;65.50
42841;DHT22;28491;46.898;7.660;2023-04-03T08:04:36;5.00;63.70
42841;DHT22;28491;46.898;7.660;2023-04-03T08:07:01;5.20;63.30
42841;DHT22;28491;46.898;7.660;2023-04-03T08:09:27;5.00;62.90
42841;DHT22;28491;46.898;7.660;2023-04-03T08:11:52;4.90;62.90
42841;DHT22;28491;46.898;7.660;2023-04-03T08:14:18;4.80;62.20
42841;DHT22;28491;46.898;7.660;2023-04-03T08:16:45;4.80;63.30
42841;DHT22;28491;46.898;7.660;2023-04-03T08:19:11;4.70;61.00
42841;DHT22;28491;46.898;7.660;2023-04-03T08:21:40;4.90;62.90
42841;DHT22;28491;46.898;7.660;2023-04-03T08:24:07;4.80;62.10
42841;DHT22;28491;46.898;7.660;2023-04-03T08:26:32;4.80;60.50
42841;DHT22;28491;46.898;7.660;2023-04-03T08:28:58;4.80;60.00
42841;DHT22;28491;46.898;7.660;2023-04-03T08:31:23;4.80;56.00
42841;DHT22;28491;46.898;7.660;2023-04-03T08:33:49;4.80;52.10
42841;DHT22;28491;46.898;7.660;2023-04-03T08:36:21;4.70;42.80
42841;DHT22;28491;46.898;7.660;2023-04-03T08:38:47;4.70;42.90
42841;DHT22;28491;46.898;7.660;2023-04-03T08:41:20;4.70;49.00
42841;DHT22;28491;46.898;7.660;2023-04-03T08:43:53;4.80;51.20
42841;DHT22;28491;46.898;7.660;2023-04-03T08:46:20;4.80;45.00
42841;DHT22;28491;46.898;7.660;2023-04-03T08:48:47;4.80;45.10
42841;DHT22;28491;46.898;7.660;2023-04-03T08:51:14;4.80;47.40
42841;DHT22;28491;46.898;7.660;2023-04-03T08:53:42;4.80;50.80
42841;DHT22;28491;46.898;7.660;2023-04-03T08:56:09;4.70;42.80
42841;DHT22;28491;46.898;7.660;2023-04-03T08:58:42;4.60;49.10
42841;DHT22;28491;46.898;7.660;2023-04-03T09:01:18;4.60;45.90
42841;DHT22;28491;46.898;7.660;2023-04-03T09:03:44;4.70;47.00
42841;DHT22;28491;46.898;7.660;2023-04-03T09:06:13;4.90;47.60
42841;DHT22;28491;46.898;7.660;2023-04-03T09:08:42;5.00;40.00
42841;DHT22;28491;46.898;7.660;2023-04-03T09:13:45;4.90;34.10
42841;DHT22;28491;46.898;7.660;2023-04-03T09:16:21;4.90;31.30
42841;DHT22;28491;46.898;7.660;2023-04-03T09:19:07;4.80;29.60
42841;DHT22;28491;46.898;7.660;2023-04-03T09:21:38;5.00;29.90
42841;DHT22;28491;46.898;7.660;2023-04-03T09:24:07;5.00;38.20
42841;DHT22;28491;46.898;7.660;2023-04-03T09:26:36;5.00;31.50
42841;DHT22;28491;46.898;7.660;2023-04-03T09:29:05;5.10;26.60
42841;DHT22;28491;46.898;7.660;2023-04-03T09:31:38;4.90;21.60
42841;DHT22;28491;46.898;7.660;2023-04-03T09:34:23;5.00;28.50
42841;DHT22;28491;46.898;7.660;2023-04-03T09:36:52;4.70;25.40
42841;DHT22;28491;46.898;7.660;2023-04-03T09:39:19;4.70;22.50
42841;DHT22;28491;46.898;7.660;2023-04-03T09:42:01;4.80;25.60
42841;DHT22;28491;46.898;7.660;2023-04-03T09:44:29;4.90;23.30
42841;DHT22;28491;46.898;7.660;2023-04-03T09:46:55;4.90;19.00
42841;DHT22;28491;46.898;7.660;2023-04-03T09:49:20;4.90;18.50
42841;DHT22;28491;46.898;7.660;2023-04-03T09:51:46;4.80;12.70
42841;DHT22;28491;46.898;7.660;2023-04-03T09:54:25;4.90;20.10
42841;DHT22;28491;46.898;7.660;2023-04-03T09:56:52;4.80;7.00
42841;DHT22;28491;46.898;7.660;2023-04-03T09:59:18;4.80;10.80
42841;DHT22;28491;46.898;7.660;2023-04-03T10:01:58;4.90;11.40
42841;DHT22;28491;46.898;7.660;2023-04-03T10:04:23;5.10;14.20
42841;DHT22;28491;46.898;7.660;2023-04-03T10:06:50;5.20;7.90
42841;DHT22;28491;46.898;7.660;2023-04-03T10:14:33;5.30;9.90
42841;DHT22;28491;46.898;7.660;2023-04-03T10:19:35;5.40;7.60
42841;DHT22;28491;46.898;7.660;2023-04-03T10:22:04;5.30;7.40
42841;DHT22;28491;46.898;7.660;2023-04-03T10:24:36;5.20;5.50
42841;DHT22;28491;46.898;7.660;2023-04-03T10:27:11;5.40;8.40
42841;DHT22;28491;46.898;7.660;2023-04-03T10:37:50;5.30;6.00
42841;DHT22;28491;46.898;7.660;2023-04-03T10:42:50;5.40;1.00
42841;DHT22;28491;46.898;7.660;2023-04-03T10:45:29;5.50;10.50
42841;DHT22;28491;46.898;7.660;2023-04-03T10:48:02;5.60;3.20
42841;DHT22;28491;46.898;7.660;2023-04-03T10:50:31;5.40;4.70
42841;DHT22;28491;46.898;7.660;2023-04-03T10:53:12;5.40;1.60
42841;DHT22;28491;46.898;7.660;2023-04-03T10:55:51;5.40;5.60
42841;DHT22;28491;46.898;7.660;2023-04-03T10:58:21;5.20;4.90
42841;DHT22;28491;46.898;7.660;2023-04-03T11:00:47;5.00;1.00
42841;DHT22;28491;46.898;7.660;2023-04-03T11:03:23;4.80;1.00
42841;DHT22;28491;46.898;7.660;2023-04-03T11:05:51;4.90;4.30
42841;DHT22;28491;46.898;7.660;2023-04-03T11:10:48;5.00;1.00
42841;DHT22;28491;46.898;7.660;2023-04-03T11:13:17;5.00;1.00
42841;DHT22;28491;46.898;7.660;2023-04-03T11:15:43;5.30;1.00
42841;DHT22;28491;46.898;7.660;2023-04-03T11:18:11;5.50;1.00
42841;DHT22;28491;46.898;7.660;2023-04-03T11:20:38;5.70;1.00
42841;DHT22;28491;46.898;7.660;2023-04-03T11:23:12;5.80;1.00
42841;DHT22;28491;46.898;7.660;2023-04-03T11:25:42;5.60;1.00
42841;DHT22;28491;46.898;7.660;2023-04-03T11:28:12;5.50;1.00
42841;DHT22;28491;46.898;7.660;2023-04-03T11:30:46;5.60;1.00
42841;DHT22;28491;46.898;7.660;2023-04-03T11:35:42;5.30;1.00
42841;DHT22;28491;46.898;7.660;2023-04-03T11:38:10;5.20;1.00
42841;DHT22;28491;46.898;7.660;2023-04-03T11:40:40;5.20;1.00
42841;DHT22;28491;46.898;7.660;2023-04-03T11:43:27;5.10;1.00
42841;DHT22;28491;46.898;7.660;2023-04-03T11:45:56;5.20;1.00
42841;DHT22;28491;46.898;7.660;2023-04-03T11:50:54;5.70;1.00
42841;DHT22;28491;46.898;7.660;2023-04-03T11:53:31;5.80;1.00
42841;DHT22;28491;46.898;7.660;2023-04-03T11:55:57;5.80;1.00
42841;DHT22;28491;46.898;7.660;2023-04-03T11:58:30;5.50;1.00
42841;DHT22;28491;46.898;7.660;2023-04-03T12:01:00;5.40;1.00
42841;DHT22;28491;46.898;7.660;2023-04-03T12:14:20;5.60;1.00
42841;DHT22;28491;46.898;7.660;2023-04-03T12:16:22;5.60;1.00
42841;DHT22;28491;46.898;7.660;2023-04-03T12:21:17;5.60;1.00
42841;DHT22;28491;46.898;7.660;2023-04-03T12:26:40;5.50;1.00
42841;DHT22;28491;46.898;7.660;2023-04-03T12:29:15;5.30;1.00
42841;DHT22;28491;46.898;7.660;2023-04-03T12:31:46;5.50;1.00
42841;DHT22;28491;46.898;7.660;2023-04-03T12:34:20;5.40;1.00
42841;DHT22;28491;46.898;7.660;2023-04-03T12:39:24;5.50;1.00
42841;DHT22;28491;46.898;7.660;2023-04-03T12:42:34;5.50;1.00
42841;DHT22;28491;46.898;7.660;2023-04-03T12:44:45;5.50;1.00
42841;DHT22;28491;46.898;7.660;2023-04-03T12:47:22;5.40;1.00
42841;DHT22;28491;46.898;7.660;2023-04-03T12:49:48;5.40;1.00
42841;DHT22;28491;46.898;7.660;2023-04-03T12:52:29;5.30;1.00
42841;DHT22;28491;46.898;7.660;2023-04-03T12:54:55;5.10;1.00
42841;DHT22;28491;46.898;7.660;2023-04-03T12:57:23;5.20;1.00
42841;DHT22;28491;46.898;7.660;2023-04-03T12:59:49;5.10;1.00
42841;DHT22;28491;46.898;7.660;2023-04-03T13:02:17;5.30;1.00
42841;DHT22;28491;46.898;7.660;2023-04-03T13:04:44;5.50;1.00
42841;DHT22;28491;46.898;7.660;2023-04-03T13:07:24;5.50;1.00
42841;DHT22;28491;46.898;7.660;2023-04-03T13:09:56;5.20;1.00
42841;DHT22;28491;46.898;7.660;2023-04-03T13:12:21;5.30;1.00
42841;DHT22;28491;46.898;7.660;2023-04-03T13:14:57;5.30;1.00
42841;DHT22;28491;46.898;7.660;2023-04-03T13:17:23;5.50;1.00
42841;DHT22;28491;46.898;7.660;2023-04-03T13:19:50;5.40;1.00
42841;DHT22;28491;46.898;7.660;2023-04-03T13:22:29;5.50;1.00
42841;DHT22;28491;46.898;7.660;2023-04-03T13:24:59;5.60;1.00
42841;DHT22;28491;46.898;7.660;2023-04-03T13:27:26;5.60;1.00
42841;DHT22;28491;46.898;7.660;2023-04-03T13:29:52;5.70;1.00
42841;DHT22;28491;46.898;7.660;2023-04-03T13:32:20;5.60;1.00
42841;DHT22;28491;46.898;7.660;2023-04-03T13:34:46;5.60;1.00
42841;DHT22;28491;46.898;7.660;2023-04-03T13:37:28;5.60;1.00
42841;DHT22;28491;46.898;7.660;2023-04-03T13:39:58;5.30;1.00
42841;DHT22;28491;46.898;7.660;2023-04-03T13:42:25;5.40;1.00
42841;DHT22;28491;46.898;7.660;2023-04-03T13:47:39;5.20;1.00
42841;DHT22;28491;46.898;7.660;2023-04-03T13:52:40;5.60;1.00
42841;DHT22;28491;46.898;7.660;2023-04-03T13:55:18;5.60;1.00
42841;DHT22;28491;46.898;7.660;2023-04-03T13:57:57;5.60;1.00
42841;DHT22;28491;46.898;7.660;2023-04-03T14:02:53;5.70;1.00
42841;DHT22;28491;46.898;7.660;2023-04-03T14:05:19;5.60;1.00
42841;DHT22;28491;46.898;7.660;2023-04-03T14:07:46;5.80;1.00
42841;DHT22;28491;46.898;7.660;2023-04-03T14:10:11;5.80;1.00
42841;DHT22;28491;46.898;7.660;2023-04-03T14:12:37;5.60;1.00
42841;DHT22;28491;46.898;7.660;2023-04-03T14:15:06;6.00;1.00
42841;DHT22;28491;46.898;7.660;2023-04-03T14:17:36;6.00;1.00
42841;DHT22;28491;46.898;7.660;2023-04-03T14:20:02;6.20;1.00
42841;DHT22;28491;46.898;7.660;2023-04-03T14:22:29;6.20;1.00
42841;DHT22;28491;46.898;7.660;2023-04-03T14:24:55;6.20;1.00
42841;DHT22;28491;46.898;7.660;2023-04-03T14:27:25;6.00;1.00
42841;DHT22;28491;46.898;7.660;2023-04-03T14:29:52;5.90;1.00
42841;DHT22;28491;46.898;7.660;2023-04-03T14:32:19;5.80;1.00
42841;DHT22;28491;46.898;7.660;2023-04-03T14:34:45;6.00;1.00
42841;DHT22;28491;46.898;7.660;2023-04-03T14:37:15;6.00;1.00
42841;DHT22;28491;46.898;7.660;2023-04-03T14:39:41;6.00;1.00
42841;DHT22;28491;46.898;7.660;2023-04-03T14:42:11;6.10;1.00
42841;DHT22;28491;46.898;7.660;2023-04-03T14:44:36;6.10;1.00
42841;DHT22;28491;46.898;7.660;2023-04-03T14:47:02;6.20;1.00
42841;DHT22;28491;46.898;7.660;2023-04-03T14:49:28;6.10;1.00
42841;DHT22;28491;46.898;7.660;2023-04-03T14:51:55;6.00;1.00
42841;DHT22;28491;46.898;7.660;2023-04-03T14:54:21;6.00;1.00
42841;DHT22;28491;46.898;7.660;2023-04-03T14:56:50;5.80;1.00
42841;DHT22;28491;46.898;7.660;2023-04-03T14:59:16;5.90;1.00
42841;DHT22;28491;46.898;7.660;2023-04-03T15:01:42;6.00;1.00
42841;DHT22;28491;46.898;7.660;2023-04-03T15:04:10;6.30;1.00
42841;DHT22;28491;46.898;7.660;2023-04-03T15:06:35;6.40;1.00
42841;DHT22;28491;46.898;7.660;2023-04-03T15:09:01;6.40;1.00
42841;DHT22;28491;46.898;7.660;2023-04-03T15:11:28;6.30;1.00
42841;DHT22;28491;46.898;7.660;2023-04-03T15:13:54;6.20;1.00
42841;DHT22;28491;46.898;7.660;2023-04-03T15:16:19;6.20;1.00
42841;DHT22;28491;46.898;7.660;2023-04-03T15:18:45;6.20;1.00
42841;DHT22;28491;46.898;7.660;2023-04-03T15:21:11;6.00;1.00
42841;DHT22;28491;46.898;7.660;2023-04-03T15:23:37;6.00;1.00
42841;DHT22;28491;46.898;7.660;2023-04-03T15:26:03;6.00;1.00
42841;DHT22;28491;46.898;7.660;2023-04-03T15:28:36;6.00;1.00
42841;DHT22;28491;46.898;7.660;2023-04-03T15:31:02;5.80;1.00
42841;DHT22;28491;46.898;7.660;2023-04-03T15:33:28;6.00;1.00
42841;DHT22;28491;46.898;7.660;2023-04-03T15:35:54;6.10;1.00
42841;DHT22;28491;46.898;7.660;2023-04-03T15:38:19;5.80;1.00
42841;DHT22;28491;46.898;7.660;2023-04-03T15:40:45;5.70;1.00
42841;DHT22;28491;46.898;7.660;2023-04-03T15:43:12;5.80;1.00
42841;DHT22;28491;46.898;7.660;2023-04-03T15:45:38;5.80;1.00
42841;DHT22;28491;46.898;7.660;2023-04-03T15:48:04;5.80;1.00
42841;DHT22;28491;46.898;7.660;2023-04-03T15:50:31;5.80;1.00
42841;DHT22;28491;46.898;7.660;2023-04-03T15:52:56;5.80;1.00
42841;DHT22;28491;46.898;7.660;2023-04-03T15:55:27;5.70;1.00
42841;DHT22;28491;46.898;7.660;2023-04-03T15:57:52;5.60;1.00
42841;DHT22;28491;46.898;7.660;2023-04-03T16:00:18;5.50;1.00
42841;DHT22;28491;46.898;7.660;2023-04-03T16:02:45;5.60;1.00
42841;DHT22;28491;46.898;7.660;2023-04-03T16:05:11;5.60;1.00
42841;DHT22;28491;46.898;7.660;2023-04-03T16:07:38;5.50;1.00
42841;DHT22;28491;46.898;7.660;2023-04-03T16:10:04;5.50;1.00
42841;DHT22;28491;46.898;7.660;2023-04-03T16:12:30;5.30;1.00
42841;DHT22;28491;46.898;7.660;2023-04-03T16:14:55;5.30;1.00
42841;DHT22;28491;46.898;7.660;2023-04-03T16:17:21;5.10;1.00
42841;DHT22;28491;46.898;7.660;2023-04-03T16:19:46;5.00;1.00
42841;DHT22;28491;46.898;7.660;2023-04-03T16:22:12;5.00;1.00
42841;DHT22;28491;46.898;7.660;2023-04-03T16:24:37;5.00;1.00
42841;DHT22;28491;46.898;7.660;2023-04-03T16:27:03;5.00;1.00
42841;DHT22;28491;46.898;7.660;2023-04-03T16:29:29;5.00;1.00
42841;DHT22;28491;46.898;7.660;2023-04-03T16:31:54;5.10;1.00
42841;DHT22;28491;46.898;7.660;2023-04-03T16:34:20;5.10;1.00
42841;DHT22;28491;46.898;7.660;2023-04-03T16:36:45;5.10;1.00
42841;DHT22;28491;46.898;7.660;2023-04-03T16:39:11;4.90;1.00
42841;DHT22;28491;46.898;7.660;2023-04-03T16:41:36;4.80;1.00
42841;DHT22;28491;46.898;7.660;2023-04-03T16:44:02;4.90;1.00
42841;DHT22;28491;46.898;7.660;2023-04-03T16:46:27;4.90;1.00
42841;DHT22;28491;46.898;7.660;2023-04-03T16:48:53;5.00;1.00
42841;DHT22;28491;46.898;7.660;2023-04-03T16:51:18;4.90;1.00
42841;DHT22;28491;46.898;7.660;2023-04-03T16:53:44;4.90;1.00